createdAt,value
2022-09-13T03:27:57.155Z,95875.59
2022-09-13T03:30:25.077Z,95874.47
2022-09-13T03:33:01.475Z,95874.78
2022-09-13T03:35:38.782Z,95881.00
2022-09-13T03:38:11.312Z,95873.88
2022-09-13T03:40:45.731Z,95869.75
2022-09-13T03:43:19.317Z,95875.16
2022-09-13T03:45:50.738Z,95872.00
2022-09-13T03:48:20.307Z,95874.56
2022-09-13T03:50:49.816Z,95873.13
2022-09-13T03:53:22.031Z,95873.25
2022-09-13T03:55:49.748Z,95868.03
2022-09-13T03:58:21.186Z,95864.88
2022-09-13T04:00:49.512Z,95871.09
2022-09-13T04:03:17.400Z,95876.22
2022-09-13T04:05:45.118Z,95872.56
2022-09-13T04:08:12.932Z,95875.44
2022-09-13T04:10:40.681Z,95868.91
2022-09-13T04:13:08.829Z,95871.59
2022-09-13T04:15:37.871Z,95869.53
2022-09-13T04:18:05.788Z,95866.50
2022-09-13T04:20:33.495Z,95878.25
2022-09-13T04:23:01.196Z,95880.00
2022-09-13T04:25:28.934Z,95881.28
2022-09-13T04:27:58.124Z,95874.75
2022-09-13T04:30:25.794Z,95875.53
2022-09-13T04:32:56.308Z,95878.91
2022-09-13T04:35:24.061Z,95871.59
2022-09-13T04:37:51.736Z,95879.38
2022-09-13T04:40:20.041Z,95878.75
2022-09-13T04:42:47.745Z,95878.56
2022-09-13T04:45:15.520Z,95880.81
2022-09-13T04:47:43.547Z,95882.25
2022-09-13T04:50:12.615Z,95887.97
2022-09-13T04:52:40.387Z,95892.75
2022-09-13T04:55:08.794Z,95896.41
2022-09-13T04:57:36.442Z,95893.22
2022-09-13T05:00:05.103Z,95883.19
2022-09-13T05:02:32.967Z,95881.28
2022-09-13T05:05:00.711Z,95872.56
2022-09-13T05:07:29.736Z,95874.63
2022-09-13T05:09:57.447Z,95880.81
2022-09-13T05:12:25.216Z,95873.31
2022-09-13T05:14:52.882Z,95877.63
2022-09-13T05:17:21.668Z,95883.03
2022-09-13T05:19:49.911Z,95879.03
2022-09-13T05:22:17.578Z,95883.81
2022-09-13T05:24:46.671Z,95886.19
2022-09-13T05:27:14.386Z,95896.19
2022-09-13T05:29:42.129Z,95890.16
2022-09-13T05:32:10.041Z,95896.34
2022-09-13T05:34:37.860Z,95887.25
2022-09-13T05:37:05.671Z,95884.56
2022-09-13T05:39:54.011Z,95882.03
2022-09-13T05:42:22.473Z,95879.97
2022-09-13T05:44:50.124Z,95875.97
2022-09-13T05:47:17.848Z,95881.22
2022-09-13T05:50:08.788Z,95892.94
2022-09-13T05:52:33.199Z,95900.75
2022-09-13T05:55:00.859Z,95899.78
2022-09-13T05:57:29.926Z,95903.28
2022-09-13T05:59:57.604Z,95898.31
2022-09-13T06:02:25.450Z,95913.72
2022-09-13T06:04:53.166Z,95904.44
2022-09-13T06:07:20.838Z,95902.16
2022-09-13T06:09:48.563Z,95894.78
2022-09-13T06:12:16.255Z,95895.09
2022-09-13T06:14:45.308Z,95890.41
2022-09-13T06:17:13.016Z,95894.31
2022-09-13T06:19:40.755Z,95894.72
2022-09-13T06:22:08.583Z,95895.59
2022-09-13T06:24:37.483Z,95896.66
2022-09-13T06:27:05.830Z,95895.16
2022-09-13T06:29:33.584Z,95885.81
2022-09-13T06:32:02.964Z,95873.78
2022-09-13T06:34:31.570Z,95882.31
2022-09-13T06:36:59.491Z,95881.22
2022-09-13T06:39:27.128Z,95883.63
2022-09-13T06:41:54.795Z,95879.94
2022-09-13T06:44:34.507Z,95871.59
2022-09-13T06:47:03.624Z,95877.16
2022-09-13T06:49:31.564Z,95864.59
2022-09-13T06:51:59.301Z,95881.16
2022-09-13T06:54:26.960Z,95871.63
2022-09-13T06:56:54.679Z,95876.09
2022-09-13T06:59:23.047Z,95881.25
2022-09-13T07:01:50.935Z,95884.56
2022-09-13T07:04:20.315Z,95892.00
2022-09-13T07:06:49.773Z,95894.44
2022-09-13T07:09:19.656Z,95890.16
2022-09-13T07:11:48.435Z,95880.34
2022-09-13T07:14:18.167Z,95892.28
2022-09-13T07:16:46.959Z,95889.84
2022-09-13T07:19:16.670Z,95892.75
2022-09-13T07:21:46.141Z,95882.72
2022-09-13T07:24:13.844Z,95888.28
2022-09-13T07:26:44.540Z,95891.50
2022-09-13T07:29:14.800Z,95896.69
2022-09-13T07:31:45.199Z,95901.88
2022-09-13T07:34:15.491Z,95899.38
2022-09-13T07:36:46.755Z,95901.78
2022-09-13T07:39:18.164Z,95899.66
2022-09-13T07:41:48.311Z,95895.41
2022-09-13T07:44:16.182Z,95903.41
2022-09-13T07:46:44.445Z,95903.63
2022-09-13T07:49:13.514Z,95910.00
2022-09-13T07:51:43.164Z,95903.97
2022-09-13T07:54:13.932Z,95900.28
2022-09-13T07:56:42.262Z,95903.59
2022-09-13T07:59:13.503Z,95894.13
2022-09-13T08:01:43.128Z,95903.03
2022-09-13T08:04:13.113Z,95900.50
2022-09-13T08:06:43.291Z,95902.34
2022-09-13T08:09:12.923Z,95905.81
2022-09-13T08:11:43.994Z,95905.34
2022-09-13T08:14:14.361Z,95910.25
2022-09-13T08:16:42.159Z,95913.28
2022-09-13T08:19:13.356Z,95917.91
2022-09-13T08:21:43.501Z,95920.13
2022-09-13T08:24:15.729Z,95922.78
2022-09-13T08:26:43.658Z,95924.22
2022-09-13T08:29:13.221Z,95923.50
2022-09-13T08:31:40.993Z,95917.66
2022-09-13T08:34:11.335Z,95911.72
2022-09-13T08:36:40.982Z,95919.97
2022-09-13T08:39:10.281Z,95922.28
2022-09-13T08:42:02.359Z,95926.25
2022-09-13T08:44:31.857Z,95918.34
2022-09-13T08:47:14.012Z,95914.97
2022-09-13T08:49:46.271Z,95928.38
2022-09-13T08:52:29.372Z,95918.72
2022-09-13T08:54:58.407Z,95927.16
2022-09-13T08:57:37.363Z,95918.78
2022-09-13T09:00:20.793Z,95910.34
2022-09-13T09:03:18.795Z,95903.09
2022-09-13T09:05:48.978Z,95902.06
2022-09-13T09:08:28.863Z,95889.28
2022-09-13T09:10:58.123Z,95893.31
2022-09-13T09:13:31.350Z,95887.25
2022-09-13T09:16:03.102Z,95900.31
2022-09-13T09:18:34.210Z,95899.53
2022-09-13T09:21:03.979Z,95898.00
2022-09-13T09:23:36.627Z,95890.25
2022-09-13T09:26:16.760Z,95888.00
2022-09-13T09:28:48.394Z,95890.47
2022-09-13T09:31:25.895Z,95885.00
2022-09-13T09:34:04.796Z,95885.06
2022-09-13T09:36:40.299Z,95885.50
2022-09-13T09:39:12.813Z,95885.50
2022-09-13T09:41:41.064Z,95883.94
2022-09-13T09:44:18.698Z,95881.22
2022-09-13T09:46:50.980Z,95881.22
2022-09-13T09:49:39.871Z,95874.91
2022-09-13T09:52:11.338Z,95875.28
2022-09-13T09:58:02.514Z,95864.56
2022-09-13T10:00:35.311Z,95864.56
2022-09-13T10:03:06.487Z,95865.22
2022-09-13T10:05:36.216Z,95854.81
2022-09-13T10:08:06.800Z,95858.53
2022-09-13T10:10:39.129Z,95867.00
2022-09-13T10:13:14.010Z,95864.88
2022-09-13T10:15:55.242Z,95869.25
2022-09-13T10:18:43.363Z,95867.59
2022-09-13T10:21:23.743Z,95867.91
2022-09-13T10:23:52.315Z,95857.34
2022-09-13T10:26:22.025Z,95854.50
2022-09-13T10:28:57.843Z,95856.25
2022-09-13T10:31:33.161Z,95859.25
2022-09-13T10:34:03.786Z,95848.34
2022-09-13T10:36:52.230Z,95837.19
2022-09-13T10:39:22.532Z,95832.97
2022-09-13T10:41:54.123Z,95828.78
2022-09-13T10:44:41.957Z,95831.31
2022-09-13T10:47:22.025Z,95837.25
2022-09-13T10:49:52.948Z,95832.69
2022-09-13T10:52:30.944Z,95834.41
2022-09-13T10:55:36.277Z,95829.38
2022-09-13T10:58:17.806Z,95822.78
2022-09-13T11:01:07.470Z,95835.25
2022-09-13T11:03:52.815Z,95825.94
2022-09-13T11:06:29.695Z,95827.13
2022-09-13T11:09:05.256Z,95823.03
2022-09-13T11:11:42.169Z,95825.06
2022-09-13T11:14:22.947Z,95824.31
2022-09-13T11:17:03.750Z,95821.25
2022-09-13T11:20:01.491Z,95821.88
2022-09-13T11:22:47.820Z,95824.44
2022-09-13T11:25:30.997Z,95822.38
2022-09-13T11:28:08.561Z,95835.00
2022-09-13T11:30:43.333Z,95824.66
2022-09-13T11:33:28.787Z,95824.31
2022-09-13T11:36:14.513Z,95830.72
2022-09-13T11:38:58.273Z,95834.19
2022-09-13T11:41:35.416Z,95838.47
2022-09-13T11:44:47.553Z,95831.72
2022-09-13T11:47:27.691Z,95839.34
2022-09-13T11:50:21.010Z,95827.28
2022-09-13T11:53:00.897Z,95808.41
2022-09-13T11:55:33.904Z,95813.31
2022-09-13T11:58:05.235Z,95814.13
2022-09-13T12:00:40.500Z,95805.44
2022-09-13T12:03:18.190Z,95810.88
2022-09-13T12:05:50.203Z,95805.75
2022-09-13T12:08:21.400Z,95797.84
2022-09-13T12:10:54.229Z,95793.16
2022-09-13T12:13:26.264Z,95798.81
2022-09-13T12:15:57.135Z,95798.63
2022-09-13T12:18:30.302Z,95796.16
2022-09-13T12:21:01.995Z,95785.41
2022-09-13T12:23:34.619Z,95789.50
2022-09-13T12:26:07.661Z,95795.13
2022-09-13T12:28:40.934Z,95803.66
2022-09-13T12:31:12.389Z,95798.06
2022-09-13T12:33:42.223Z,95802.00
2022-09-13T12:36:41.144Z,95795.13
2022-09-13T12:39:28.890Z,95790.69
2022-09-13T12:42:23.063Z,95795.81
2022-09-13T12:45:16.446Z,95790.47
2022-09-13T12:48:19.120Z,95785.06
2022-09-13T12:50:58.737Z,95778.91
2022-09-13T12:53:48.091Z,95778.22
2022-09-13T12:56:34.138Z,95779.22
2022-09-13T12:59:35.847Z,95775.22
2022-09-13T13:02:24.505Z,95775.53
2022-09-13T13:04:57.182Z,95773.66
2022-09-13T13:07:25.929Z,95771.25
2022-09-13T13:09:58.653Z,95767.88
2022-09-13T13:12:32.857Z,95760.94
2022-09-13T13:15:02.341Z,95754.59
2022-09-13T13:17:46.333Z,95748.47
2022-09-13T13:20:48.229Z,95744.34
2022-09-13T13:23:23.451Z,95740.16
2022-09-13T13:26:39.439Z,95739.38
2022-09-13T13:29:19.398Z,95742.03
2022-09-13T13:32:10.067Z,95731.75
2022-09-13T13:34:42.209Z,95740.41
2022-09-13T13:37:38.077Z,95735.22
2022-09-13T13:40:26.378Z,95738.22
2022-09-13T13:43:16.532Z,95727.56
2022-09-13T13:46:14.301Z,95732.13
2022-09-13T13:48:43.389Z,95735.00
2022-09-13T13:51:24.554Z,95732.59
2022-09-13T13:53:57.066Z,95727.81
2022-09-13T13:56:34.832Z,95735.00
2022-09-13T13:59:07.601Z,95732.91
2022-09-13T14:01:45.275Z,95730.25
2022-09-13T14:04:43.088Z,95732.78
2022-09-13T14:07:38.288Z,95724.69
2022-09-13T14:10:12.272Z,95720.81
2022-09-13T14:12:56.968Z,95717.09
2022-09-13T14:15:48.633Z,95714.78
2022-09-13T14:18:56.422Z,95714.41
2022-09-13T14:21:29.407Z,95709.47
2022-09-13T14:24:18.978Z,95708.88
2022-09-13T14:26:48.705Z,95702.75
2022-09-13T14:29:19.822Z,95696.88
2022-09-13T14:31:48.918Z,95681.38
2022-09-13T14:34:24.550Z,95675.28
2022-09-13T14:36:56.468Z,95668.00
2022-09-13T14:39:24.907Z,95665.25
2022-09-13T14:42:01.401Z,95670.13
2022-09-13T14:44:30.217Z,95668.38
2022-09-13T14:47:08.314Z,95666.16
2022-09-13T14:49:40.713Z,95670.47
2022-09-13T14:52:16.139Z,95659.56
2022-09-13T14:54:48.545Z,95662.50
2022-09-13T14:57:23.952Z,95652.81
2022-09-13T14:59:55.648Z,95655.31
2022-09-13T15:02:26.393Z,95650.81
2022-09-13T15:04:56.630Z,95640.84
2022-09-13T15:07:33.194Z,95652.09
2022-09-13T15:10:09.456Z,95637.63
2022-09-13T15:12:37.558Z,95633.38
2022-09-13T15:15:36.047Z,95620.09
2022-09-13T15:18:07.519Z,95618.88
2022-09-13T15:20:51.623Z,95614.44
2022-09-13T15:23:26.042Z,95622.91
2022-09-13T15:25:56.050Z,95619.00
2022-09-13T15:28:29.150Z,95622.56
2022-09-13T15:30:59.049Z,95612.69
2022-09-13T15:33:29.356Z,95607.94
2022-09-13T15:36:31.927Z,95606.00
2022-09-13T15:39:03.511Z,95609.75
2022-09-13T15:41:33.978Z,95607.63
2022-09-13T15:44:03.044Z,95611.28
2022-09-13T15:46:31.684Z,95614.25
2022-09-13T15:49:03.848Z,95618.78
2022-09-13T15:51:38.163Z,95615.41
2022-09-13T15:54:12.987Z,95611.34
2022-09-13T15:56:44.302Z,95619.31
2022-09-13T15:59:14.584Z,95618.25
2022-09-13T16:01:42.453Z,95615.25
2022-09-13T16:04:10.423Z,95611.06
2022-09-13T16:06:38.526Z,95610.38
2022-09-13T16:09:17.104Z,95607.34
2022-09-13T16:11:44.843Z,95608.25
2022-09-13T16:14:12.537Z,95603.50
2022-09-13T16:16:40.545Z,95602.78
2022-09-13T16:19:14.392Z,95596.94
2022-09-13T16:21:42.218Z,95594.28
2022-09-13T16:24:11.500Z,95590.47
2022-09-13T16:26:40.242Z,95595.28
2022-09-13T16:29:08.267Z,95585.66
2022-09-13T16:31:36.158Z,95592.56
2022-09-13T16:34:03.942Z,95593.50
2022-09-13T16:36:33.924Z,95584.25
2022-09-13T16:39:01.751Z,95585.16
2022-09-13T16:41:30.806Z,95576.63
2022-09-13T16:43:58.543Z,95586.25
2022-09-13T16:46:26.906Z,95579.22
2022-09-13T16:48:55.476Z,95591.19
2022-09-13T16:51:24.034Z,95587.81
2022-09-13T16:53:53.426Z,95589.88
2022-09-13T16:56:24.160Z,95586.91
2022-09-13T16:58:53.833Z,95589.47
2022-09-13T17:01:24.591Z,95582.47
2022-09-13T17:03:54.982Z,95581.41
2022-09-13T17:06:24.848Z,95577.13
2022-09-13T17:08:55.312Z,95578.00
2022-09-13T17:11:25.867Z,95573.75
2022-09-13T17:13:55.999Z,95575.34
2022-09-13T17:16:27.346Z,95567.94
2022-09-13T17:18:57.149Z,95571.94
2022-09-13T17:21:25.576Z,95567.22
2022-09-13T17:23:53.701Z,95568.03
2022-09-13T17:26:21.507Z,95557.06
2022-09-13T17:28:49.707Z,95556.72
2022-09-13T17:31:21.862Z,95561.06
2022-09-13T17:33:50.285Z,95545.38
2022-09-13T17:36:21.053Z,95543.13
2022-09-13T17:38:49.123Z,95548.69
2022-09-13T17:41:19.036Z,95551.91
2022-09-13T17:43:48.100Z,95552.31
2022-09-13T17:46:18.692Z,95553.53
2022-09-13T17:48:46.623Z,95555.13
2022-09-13T17:51:16.646Z,95557.91
2022-09-13T17:53:46.317Z,95556.34
2022-09-13T17:56:18.696Z,95551.25
2022-09-13T17:58:46.679Z,95561.91
2022-09-13T18:01:14.809Z,95561.94
2022-09-13T18:03:44.142Z,95560.00
2022-09-13T18:06:14.364Z,95554.91
2022-09-13T18:08:42.840Z,95551.34
2022-09-13T18:11:13.922Z,95559.22
2022-09-13T18:13:42.993Z,95560.00
2022-09-13T18:16:16.101Z,95565.13
2022-09-13T18:18:50.342Z,95563.94
2022-09-13T18:21:19.727Z,95560.03
2022-09-13T18:23:48.728Z,95567.06
2022-09-13T18:26:18.567Z,95561.59
2022-09-13T18:28:47.201Z,95566.28
2022-09-13T18:31:17.241Z,95561.59
2022-09-13T18:33:46.127Z,95558.47
2022-09-13T18:36:17.044Z,95549.84
2022-09-13T18:38:46.287Z,95551.78
2022-09-13T18:41:15.836Z,95556.09
2022-09-13T18:43:45.858Z,95554.50
2022-09-13T18:46:16.064Z,95556.09
2022-09-13T18:48:45.297Z,95558.03
2022-09-13T18:51:16.341Z,95555.25
2022-09-13T18:53:44.669Z,95558.78
2022-09-13T18:56:13.943Z,95562.31
2022-09-13T18:58:43.239Z,95557.59
2022-09-13T19:01:12.703Z,95557.97
2022-09-13T19:03:41.832Z,95555.59
2022-09-13T19:06:11.406Z,95567.38
2022-09-13T19:08:40.946Z,95562.63
2022-09-13T19:11:19.327Z,95559.09
2022-09-13T19:13:58.383Z,95560.28
2022-09-13T19:16:26.382Z,95564.19
2022-09-13T19:18:56.283Z,95551.63
2022-09-13T19:21:25.969Z,95555.91
2022-09-13T19:23:59.922Z,95550.84
2022-09-13T19:26:31.889Z,95549.28
2022-09-13T19:29:04.473Z,95548.84
2022-09-13T19:31:33.726Z,95548.06
2022-09-13T19:34:02.981Z,95554.28
2022-09-13T19:36:34.216Z,95556.22
2022-09-13T19:39:05.990Z,95544.84
2022-09-13T19:41:33.969Z,95545.63
2022-09-13T19:44:03.742Z,95547.53
2022-09-13T19:46:33.915Z,95534.50
2022-09-13T19:49:02.870Z,95536.47
2022-09-13T19:51:32.431Z,95534.88
2022-09-13T19:54:01.529Z,95537.19
2022-09-13T19:56:33.072Z,95535.94
2022-09-13T19:59:02.407Z,95535.94
2022-09-13T20:01:33.441Z,95533.97
2022-09-13T20:04:03.117Z,95524.53
2022-09-13T20:06:35.726Z,95527.97
2022-09-13T20:09:04.080Z,95517.81
2022-09-13T20:11:36.636Z,95518.56
2022-09-13T20:14:07.562Z,95525.22
2022-09-13T20:16:37.817Z,95524.75
2022-09-13T20:19:29.673Z,95527.53
2022-09-13T20:21:55.757Z,95530.22
2022-09-13T20:24:23.865Z,95538.88
2022-09-13T20:26:52.951Z,95536.50
2022-09-13T20:29:20.675Z,95532.22
2022-09-13T20:31:48.411Z,95529.44
2022-09-13T20:34:16.612Z,95528.69
2022-09-13T20:36:47.136Z,95531.81
2022-09-13T20:39:16.224Z,95531.06
2022-09-13T20:41:44.442Z,95531.84
2022-09-13T20:44:13.646Z,95533.84
2022-09-13T20:46:42.779Z,95545.16
2022-09-13T20:49:11.651Z,95541.28
2022-09-13T20:51:39.854Z,95548.69
2022-09-13T20:54:08.260Z,95552.25
2022-09-13T20:56:36.721Z,95552.69
2022-09-13T20:59:05.715Z,95543.69
2022-09-13T21:01:35.190Z,95541.72
2022-09-13T21:04:03.867Z,95538.16
2022-09-13T21:06:33.153Z,95535.03
2022-09-13T21:09:00.288Z,95537.38
2022-09-13T21:11:32.774Z,95534.22
2022-09-13T21:14:02.977Z,95540.50
2022-09-13T21:16:35.547Z,95551.00
2022-09-13T21:19:03.346Z,95554.13
2022-09-13T21:21:32.406Z,95560.00
2022-09-13T21:24:02.127Z,95551.78
2022-09-13T21:26:30.135Z,95562.38
2022-09-13T21:29:00.264Z,95569.06
2022-09-13T21:31:30.241Z,95579.59
2022-09-13T21:34:00.864Z,95574.50
2022-09-13T21:36:29.773Z,95572.22
2022-09-13T21:38:57.836Z,95571.84
2022-09-13T21:41:27.341Z,95577.28
2022-09-13T21:43:55.419Z,95578.44
2022-09-13T21:46:25.464Z,95577.31
2022-09-13T21:48:55.528Z,95569.50
2022-09-13T21:51:26.236Z,95563.22
2022-09-13T21:53:58.754Z,95544.47
2022-09-13T21:56:29.063Z,95539.38
2022-09-13T21:58:59.209Z,95536.25
2022-09-13T22:01:28.954Z,95520.59
2022-09-13T22:03:57.887Z,95518.59
2022-09-13T22:06:32.627Z,95515.47
2022-09-13T22:09:03.388Z,95528.00
2022-09-13T22:11:33.181Z,95524.53
2022-09-13T22:14:02.306Z,95521.00
2022-09-13T22:16:31.925Z,95528.03
2022-09-13T22:19:06.706Z,95531.16
2022-09-13T22:21:39.895Z,95545.28
2022-09-13T22:24:09.690Z,95547.59
2022-09-13T22:26:39.595Z,95544.47
2022-09-13T22:29:08.699Z,95541.75
2022-09-13T22:31:38.867Z,95542.97
2022-09-13T22:34:07.815Z,95536.72
2022-09-13T22:36:35.682Z,95538.66
2022-09-13T22:39:05.347Z,95537.84
2022-09-13T22:41:34.739Z,95542.94
2022-09-13T22:44:03.449Z,95534.72
2022-09-13T22:46:32.890Z,95525.69
2022-09-13T22:49:01.617Z,95510.03
2022-09-13T22:51:29.688Z,95502.22
2022-09-13T22:53:58.319Z,95485.75
2022-09-13T22:56:29.155Z,95484.97
2022-09-13T22:58:58.492Z,95483.81
2022-09-13T23:01:27.241Z,95487.69
2022-09-13T23:03:55.350Z,95486.09
2022-09-13T23:06:24.590Z,95493.13
2022-09-13T23:08:53.896Z,95494.66
2022-09-13T23:11:22.892Z,95492.69
2022-09-13T23:13:54.064Z,95496.97
2022-09-13T23:16:23.969Z,95499.72
2022-09-13T23:18:52.971Z,95501.72
2022-09-13T23:21:22.382Z,95513.41
2022-09-13T23:23:50.499Z,95514.56
2022-09-13T23:26:20.384Z,95505.97
2022-09-13T23:28:52.199Z,95496.19
2022-09-13T23:31:23.025Z,95496.97
2022-09-13T23:33:53.404Z,95492.69
2022-09-13T23:36:23.273Z,95496.22
2022-09-13T23:38:52.702Z,95507.13
2022-09-13T23:41:21.077Z,95501.28
2022-09-13T23:43:49.492Z,95490.72
2022-09-13T23:46:17.646Z,95490.31
2022-09-13T23:48:47.051Z,95469.63
2022-09-13T23:51:18.813Z,95466.50
2022-09-13T23:53:47.252Z,95462.16
2022-09-13T23:56:16.718Z,95466.44
2022-09-13T23:58:44.695Z,95463.72
